Alexandria, South Dakota
Current Conditions -  °F | °C
As of 9:53 AM on Friday 24 Oct 2014 (Local Time) from KMHE Reporting Station
Clear Clear  
Wind Chill:   Ceiling: Unl
Heat Index:   Visibility: 10mi
Dew Point:   Wind: 3mph
Humidity: 80%   Direction: 280°W
Pressure: 29.91"   Gusts: NA
Location:  43.65°N, 97.78°W
Report Text: KMHE 241453Z AUTO 28003KT 10SM CLR 09/06 A2991 RMK AO2 SLP132 T00940061 53017
Loading
Personal Weather Stations






























Interactive Weather Map
Tropical Storm Tracking
New forecast layout! Learn more

10-Day Weather Forecast

Advertisements
Track Severe Weather on mobile